createdAt,value
2023-05-12T03:44:20.509Z,6.93
2023-05-12T03:59:22.367Z,8.90
2023-05-12T04:14:31.792Z,8.87
2023-05-12T04:29:41.330Z,7.67
2023-05-12T04:44:46.181Z,7.40
2023-05-12T04:59:48.232Z,7.83
2023-05-12T05:14:50.109Z,7.33
2023-05-12T05:29:52.280Z,10.53
2023-05-12T05:44:54.253Z,8.73
2023-05-12T05:59:56.505Z,11.03
2023-05-12T06:14:58.466Z,8.33
2023-05-12T06:30:00.460Z,8.53
2023-05-12T06:45:02.453Z,10.13
2023-05-12T07:00:05.230Z,11.77
2023-05-12T07:15:08.600Z,9.17
2023-05-12T07:30:11.400Z,12.97
2023-05-12T07:45:13.277Z,10.83
2023-05-12T08:00:15.936Z,12.53
2023-05-12T08:15:18.097Z,17.87
2023-05-12T08:30:20.449Z,10.30
2023-05-12T08:45:24.629Z,9.97
2023-05-12T09:00:28.861Z,8.63
2023-05-12T09:15:37.534Z,8.17
2023-05-12T09:30:42.695Z,10.47
2023-05-12T09:45:54.207Z,9.63
2023-05-12T10:16:03.351Z,11.27
2023-05-12T10:31:08.360Z,6.63
2023-05-12T10:46:17.199Z,6.50
2023-05-12T11:01:25.716Z,6.00
2023-05-12T11:16:28.414Z,6.10
2023-05-12T11:31:30.460Z,8.07
2023-05-12T11:46:32.375Z,5.77
2023-05-12T12:01:46.411Z,6.87
2023-05-12T12:16:48.331Z,6.70
2023-05-12T12:31:50.285Z,5.67
2023-05-12T12:46:52.211Z,7.93
2023-05-12T13:01:54.168Z,6.67
2023-05-12T13:16:56.202Z,5.43
2023-05-12T13:31:58.044Z,7.77
2023-05-12T13:47:00.085Z,4.57
2023-05-12T14:02:02.484Z,4.60
2023-05-12T14:17:04.884Z,7.97
2023-05-12T14:32:07.740Z,5.47
2023-05-12T14:47:09.800Z,5.63
2023-05-12T15:02:11.727Z,6.00
2023-05-12T15:17:16.363Z,5.07
2023-05-12T15:32:18.234Z,6.83
2023-05-12T15:47:20.145Z,4.80
2023-05-12T16:02:22.325Z,4.40
2023-05-12T16:17:24.252Z,4.97
2023-05-12T16:32:26.137Z,4.23
2023-05-12T16:47:29.684Z,4.80
2023-05-12T17:02:32.339Z,5.27
2023-05-12T17:17:34.634Z,7.17
2023-05-12T17:32:36.766Z,5.77
2023-05-12T17:47:38.678Z,6.17
2023-05-12T18:02:41.398Z,3.90
2023-05-12T18:17:43.522Z,4.57
2023-05-12T18:32:45.541Z,4.30
2023-05-12T18:47:47.626Z,6.13
2023-05-12T19:02:49.751Z,5.57
2023-05-12T19:17:51.741Z,5.20
2023-05-12T19:32:58.394Z,4.30
2023-05-12T19:48:00.421Z,5.30
2023-05-12T20:03:05.565Z,4.23
2023-05-12T20:18:07.512Z,4.10
2023-05-12T20:33:09.528Z,4.63
2023-05-12T20:48:11.554Z,4.50
2023-05-12T21:03:17.259Z,4.30
2023-05-12T21:18:19.584Z,7.20
2023-05-12T21:33:21.623Z,4.23
2023-05-12T21:48:24.956Z,5.23
2023-05-12T22:03:26.837Z,4.90
2023-05-12T22:18:29.075Z,5.27
2023-05-12T22:33:31.842Z,5.70
2023-05-12T22:48:38.694Z,7.60
2023-05-12T23:03:41.911Z,6.60
2023-05-12T23:18:43.918Z,3.90
2023-05-12T23:33:45.924Z,5.23
2023-05-12T23:48:47.783Z,2.77
